createdAt,value
2023-03-08T00:00:23.487Z,84.9
2023-03-08T00:01:27.239Z,85.1
2023-03-08T00:02:31.244Z,85.2
2023-03-08T00:03:33.542Z,85.2
2023-03-08T00:04:37.010Z,85.3
2023-03-08T00:05:40.842Z,85.3
2023-03-08T00:06:44.204Z,85.1
2023-03-08T00:07:47.282Z,84.9
2023-03-08T00:08:50.322Z,84.9
2023-03-08T00:09:54.107Z,84.9
2023-03-08T00:10:57.227Z,85
2023-03-08T00:12:00.618Z,84.9
2023-03-08T00:13:03.742Z,85.1
2023-03-08T00:14:06.816Z,85.2
2023-03-08T00:15:09.306Z,85.5
2023-03-08T00:16:13.734Z,85.6
2023-03-08T00:17:16.910Z,85.5
2023-03-08T00:18:20.352Z,85.5
2023-03-08T00:19:23.715Z,85.3
2023-03-08T00:20:27.090Z,85.3
2023-03-08T00:21:29.526Z,85.3
2023-03-08T00:22:32.614Z,85.4
2023-03-08T00:23:36.039Z,85.3
2023-03-08T00:24:39.506Z,85.4
2023-03-08T00:25:42.612Z,85.3
2023-03-08T00:26:45.779Z,85.5
2023-03-08T00:27:49.148Z,85.6
2023-03-08T00:28:52.560Z,85.5
2023-03-08T00:29:55.346Z,85.5
2023-03-08T00:30:59.001Z,85.7
2023-03-08T00:32:03.956Z,86
2023-03-08T00:33:07.196Z,86
2023-03-08T00:34:10.050Z,86.2
2023-03-08T00:35:12.740Z,86.4
2023-03-08T00:36:15.169Z,86.5
2023-03-08T00:37:18.041Z,86.5
2023-03-08T00:38:21.311Z,86.4
2023-03-08T00:39:24.108Z,86.3
2023-03-08T00:40:27.849Z,86.3
2023-03-08T00:41:31.186Z,86.3
2023-03-08T00:42:34.039Z,86.1
2023-03-08T00:43:37.161Z,85.9
2023-03-08T00:44:40.511Z,86
2023-03-08T00:45:43.797Z,86
2023-03-08T00:46:47.608Z,86
2023-03-08T00:47:52.014Z,86.2
2023-03-08T00:48:54.753Z,86.1
2023-03-08T00:49:58.136Z,86.1
2023-03-08T00:51:01.440Z,86.1
2023-03-08T00:52:04.699Z,86
2023-03-08T00:53:07.290Z,86
2023-03-08T00:54:10.284Z,86.2
2023-03-08T00:55:13.293Z,86.5
2023-03-08T00:56:16.344Z,86.5
2023-03-08T00:57:20.168Z,86.4
2023-03-08T00:58:23.816Z,86.6
2023-03-08T00:59:26.080Z,86.8
2023-03-08T01:00:28.887Z,86.7
2023-03-08T01:01:32.781Z,86.8
2023-03-08T01:02:35.636Z,86.8
2023-03-08T01:03:39.510Z,86.6
2023-03-08T01:04:42.533Z,86.6
2023-03-08T01:05:46.230Z,86.8
2023-03-08T01:06:49.135Z,86.8
2023-03-08T01:07:52.134Z,86.7
2023-03-08T01:08:55.477Z,86.6
2023-03-08T01:09:58.345Z,86.7
2023-03-08T01:11:02.412Z,86.9
2023-03-08T01:12:05.550Z,86.9
2023-03-08T01:13:08.929Z,86.9
2023-03-08T01:14:11.650Z,87
2023-03-08T01:15:14.571Z,87.1
2023-03-08T01:16:18.312Z,87.1
2023-03-08T01:17:22.089Z,87.1
2023-03-08T01:18:24.954Z,87.7
2023-03-08T01:19:29.134Z,87.7
2023-03-08T01:20:32.508Z,87.7
2023-03-08T01:21:35.683Z,87.5
2023-03-08T01:22:38.763Z,87.1
2023-03-08T01:23:43.466Z,87.1
2023-03-08T01:24:46.392Z,87.3
2023-03-08T01:25:49.516Z,87.4
2023-03-08T01:26:52.885Z,87.3
2023-03-08T01:27:55.956Z,87
2023-03-08T01:28:58.598Z,86.9
2023-03-08T01:30:01.488Z,86.8
2023-03-08T01:31:04.817Z,86.8
2023-03-08T01:32:07.860Z,86.8
2023-03-08T01:33:11.016Z,87
2023-03-08T01:34:14.938Z,87
2023-03-08T01:35:18.771Z,86.9
2023-03-08T01:36:22.022Z,87.2
2023-03-08T01:37:24.719Z,87.7
2023-03-08T01:38:27.998Z,87.9
2023-03-08T01:39:31.066Z,88.1
2023-03-08T01:40:34.127Z,88.1
2023-03-08T01:41:37.282Z,88.1
2023-03-08T01:42:40.388Z,88.1
2023-03-08T01:43:44.055Z,88.2
2023-03-08T01:44:47.119Z,88.5
2023-03-08T01:45:49.907Z,88.9
2023-03-08T01:46:53.061Z,89
2023-03-08T01:47:56.057Z,89
2023-03-08T01:48:59.584Z,89.1
2023-03-08T01:50:03.358Z,89.6
2023-03-08T01:51:07.667Z,89.6
2023-03-08T01:52:11.005Z,89.7
2023-03-08T01:53:14.091Z,89.8
2023-03-08T01:54:17.112Z,89.8
2023-03-08T01:55:20.846Z,89.7
2023-03-08T01:56:23.643Z,89.7
2023-03-08T01:57:27.409Z,89.8
2023-03-08T01:58:30.819Z,89.9
2023-03-08T01:59:34.134Z,90
2023-03-08T02:00:37.802Z,90
2023-03-08T02:01:40.587Z,90
2023-03-08T02:02:43.693Z,89.9
2023-03-08T02:03:46.966Z,90
2023-03-08T02:04:50.133Z,90.3
2023-03-08T02:05:53.555Z,90.3
2023-03-08T02:06:57.847Z,90.3
2023-03-08T02:08:01.241Z,90.6
2023-03-08T02:09:04.772Z,90.7
2023-03-08T02:10:07.999Z,91
2023-03-08T02:11:11.661Z,90.9
2023-03-08T02:12:13.965Z,91
2023-03-08T02:13:16.394Z,90.9
2023-03-08T02:14:18.924Z,90.8
2023-03-08T02:15:22.006Z,90.8
2023-03-08T02:16:25.364Z,90.7
2023-03-08T02:17:29.193Z,90.9
2023-03-08T02:18:31.897Z,90.9
2023-03-08T02:19:35.048Z,90.8
2023-03-08T02:20:38.118Z,90.6
2023-03-08T02:21:41.657Z,90.6
2023-03-08T02:22:45.816Z,90.5
2023-03-08T02:23:48.618Z,90.4
2023-03-08T02:24:51.749Z,90.4
2023-03-08T02:25:55.283Z,90.4
2023-03-08T02:26:58.764Z,90.6
2023-03-08T02:28:01.842Z,90.5
2023-03-08T02:29:04.635Z,90.6
2023-03-08T02:30:08.258Z,90.4
2023-03-08T02:31:11.256Z,90.3
2023-03-08T02:32:14.434Z,90.3
2023-03-08T02:33:17.926Z,90.4
2023-03-08T02:34:20.998Z,90.4
2023-03-08T02:35:24.135Z,90.4
2023-03-08T02:36:27.282Z,90.4
2023-03-08T02:37:30.671Z,90.5
2023-03-08T02:38:34.797Z,90.5
2023-03-08T02:39:38.513Z,90.6
2023-03-08T02:40:41.880Z,90.7
2023-03-08T02:41:44.872Z,90.7
2023-03-08T02:42:48.610Z,90.7
2023-03-08T02:43:53.436Z,90.6
2023-03-08T02:44:56.714Z,90.5
2023-03-08T02:45:59.795Z,90.5
2023-03-08T02:47:02.657Z,90.4
2023-03-08T02:48:06.043Z,90.2
2023-03-08T02:49:09.117Z,90.2
2023-03-08T02:50:12.873Z,90.1
2023-03-08T02:51:16.687Z,90.1
2023-03-08T02:52:20.418Z,89.9
2023-03-08T02:53:24.164Z,90.1
2023-03-08T02:54:28.301Z,90.1
2023-03-08T02:55:31.014Z,90.3
2023-03-08T02:56:34.737Z,90.3
2023-03-08T02:57:37.517Z,90.1
2023-03-08T02:58:40.576Z,90
2023-03-08T02:59:44.031Z,89.9
2023-03-08T03:00:48.056Z,90
2023-03-08T03:01:50.944Z,90.1
2023-03-08T03:02:53.962Z,90.1
2023-03-08T03:03:56.991Z,90
2023-03-08T03:04:59.716Z,90.1
2023-03-08T03:06:02.600Z,90.1
2023-03-08T03:07:06.076Z,90.1
2023-03-08T03:08:09.356Z,90.2
2023-03-08T03:09:12.123Z,90.1
2023-03-08T03:10:16.032Z,90
2023-03-08T03:11:19.109Z,89.8
2023-03-08T03:12:22.540Z,89.8
2023-03-08T03:13:24.971Z,89.7
2023-03-08T03:14:28.035Z,89.5
2023-03-08T03:15:31.936Z,89.6
2023-03-08T03:16:34.469Z,89.5
2023-03-08T03:17:37.372Z,89.5
2023-03-08T03:18:40.766Z,89.5
2023-03-08T03:19:43.557Z,89.7
2023-03-08T03:20:46.566Z,89.6
2023-03-08T03:21:49.936Z,89.7
2023-03-08T03:22:52.985Z,90
2023-03-08T03:23:56.355Z,90.2
2023-03-08T03:24:59.126Z,90.3
2023-03-08T03:26:03.309Z,90.4
2023-03-08T03:27:06.456Z,90.5
2023-03-08T03:28:09.551Z,90.6
2023-03-08T03:29:12.397Z,90.6
2023-03-08T03:30:15.879Z,90.7
2023-03-08T03:31:19.242Z,90.9
2023-03-08T03:32:23.009Z,90.9
2023-03-08T03:33:25.819Z,90.9
2023-03-08T03:34:29.508Z,90.9
2023-03-08T03:35:32.518Z,90.9
2023-03-08T03:36:36.295Z,90.9
2023-03-08T03:37:39.695Z,91
2023-03-08T03:38:43.365Z,91
2023-03-08T03:39:46.286Z,91.2
2023-03-08T03:40:50.086Z,91.3
2023-03-08T03:41:54.193Z,91.3
2023-03-08T03:42:57.840Z,91.4
2023-03-08T03:44:00.880Z,91.6
2023-03-08T03:45:03.974Z,91.7
2023-03-08T03:46:07.191Z,91.8
2023-03-08T03:47:11.110Z,91.8
2023-03-08T03:48:14.280Z,91.7
2023-03-08T03:49:16.538Z,91.6
2023-03-08T03:50:19.257Z,91.5
2023-03-08T03:51:22.740Z,91.4
2023-03-08T03:52:25.486Z,91.5
2023-03-08T03:53:28.830Z,91.4
2023-03-08T03:54:32.542Z,91.5
2023-03-08T03:55:35.872Z,91.8
2023-03-08T03:56:38.713Z,92
2023-03-08T03:57:42.957Z,91.9
2023-03-08T03:58:46.002Z,91.9
2023-03-08T03:59:50.027Z,91.9
2023-03-08T04:00:53.181Z,91.9
2023-03-08T04:01:56.494Z,92.1
2023-03-08T04:02:59.341Z,92.2
2023-03-08T04:04:03.472Z,92.3
2023-03-08T04:05:07.162Z,92.2
2023-03-08T04:06:10.867Z,92.1
2023-03-08T04:07:13.962Z,92
2023-03-08T04:08:17.069Z,91.8
2023-03-08T04:09:19.590Z,91.6
2023-03-08T04:10:23.389Z,91.6
2023-03-08T04:11:26.366Z,91.5
2023-03-08T04:12:29.520Z,91.5
2023-03-08T04:13:33.679Z,91.5
2023-03-08T04:14:36.266Z,91.6
2023-03-08T04:15:39.795Z,91.6
2023-03-08T04:16:42.931Z,91.6
2023-03-08T04:17:45.944Z,91.6
2023-03-08T04:18:49.700Z,91.6
2023-03-08T04:19:53.435Z,91.6
2023-03-08T04:20:57.145Z,91.4
2023-03-08T04:22:00.278Z,91.3
2023-03-08T04:23:03.245Z,91
2023-03-08T04:24:06.399Z,91.1
2023-03-08T04:25:09.730Z,91.4
2023-03-08T04:26:13.132Z,91.5
2023-03-08T04:27:15.894Z,91.6
2023-03-08T04:28:18.192Z,91.8
2023-03-08T04:29:22.085Z,92.1
2023-03-08T04:30:24.881Z,92.3
2023-03-08T04:31:28.226Z,92.5
2023-03-08T04:32:31.970Z,92.7
2023-03-08T04:33:35.204Z,92.6
2023-03-08T04:34:37.460Z,92.5
2023-03-08T04:35:40.407Z,92.6
2023-03-08T04:36:43.431Z,92.6
2023-03-08T04:37:50.280Z,92.7
2023-03-08T04:38:52.807Z,92.9
2023-03-08T04:39:56.168Z,93
2023-03-08T04:40:58.608Z,93.1
2023-03-08T04:42:01.244Z,93.1
2023-03-08T04:43:04.592Z,93.2
2023-03-08T04:44:07.382Z,93.2
2023-03-08T04:45:11.796Z,93.2
2023-03-08T04:46:14.905Z,93.2
2023-03-08T04:47:17.590Z,93.1
2023-03-08T04:48:20.867Z,93.1
2023-03-08T04:49:23.911Z,92.8
2023-03-08T04:50:27.547Z,92.8
2023-03-08T04:51:30.697Z,93.1
2023-03-08T04:52:34.703Z,93.3
2023-03-08T04:53:37.752Z,93.2
2023-03-08T04:54:41.052Z,93.4
2023-03-08T04:55:44.408Z,93.5
2023-03-08T04:56:47.496Z,93.5
2023-03-08T04:57:51.142Z,93.4
2023-03-08T04:58:54.872Z,93.3
2023-03-08T04:59:58.622Z,93.3
2023-03-08T05:01:02.851Z,93.3
2023-03-08T05:02:05.338Z,93.2
2023-03-08T05:03:08.676Z,93.1
2023-03-08T05:04:11.380Z,93
2023-03-08T05:05:15.019Z,92.9
2023-03-08T05:06:18.685Z,92.8
2023-03-08T05:07:22.455Z,92.9
2023-03-08T05:08:25.485Z,93.2
2023-03-08T05:09:29.179Z,93.4
2023-03-08T05:10:32.651Z,93.5
2023-03-08T05:11:35.923Z,93.7
2023-03-08T05:12:39.396Z,93.9
2023-03-08T05:13:42.839Z,93.8
2023-03-08T05:14:46.156Z,93.8
2023-03-08T05:15:49.118Z,93.7
2023-03-08T05:16:53.082Z,93.7
2023-03-08T05:17:56.419Z,93.7
2023-03-08T05:18:59.500Z,93.6
2023-03-08T05:20:02.903Z,93.7
2023-03-08T05:21:05.794Z,93.8
2023-03-08T05:22:08.992Z,93.8
2023-03-08T05:23:12.285Z,93.8
2023-03-08T05:24:15.014Z,93.7
2023-03-08T05:25:18.399Z,93.7
2023-03-08T05:26:21.853Z,93.6
2023-03-08T05:27:24.910Z,93.5
2023-03-08T05:28:27.723Z,93.6
2023-03-08T05:29:31.182Z,93.6
2023-03-08T05:30:34.238Z,93.6
2023-03-08T05:31:37.621Z,93.7
2023-03-08T05:32:42.278Z,93.7
2023-03-08T05:33:46.051Z,93.6
2023-03-08T05:34:49.330Z,93.6
2023-03-08T05:35:53.132Z,93.5
2023-03-08T05:36:56.311Z,93.5
2023-03-08T05:37:59.376Z,93.5
2023-03-08T05:39:02.523Z,93.5
2023-03-08T05:40:05.067Z,93.4
2023-03-08T05:41:07.968Z,93.3
2023-03-08T05:42:11.130Z,93.1
2023-03-08T05:43:14.317Z,93
2023-03-08T05:44:17.505Z,92.8
2023-03-08T05:45:20.906Z,92.8
2023-03-08T05:46:24.927Z,92.6
2023-03-08T05:47:28.299Z,92.4
2023-03-08T05:48:32.526Z,92.3
2023-03-08T05:49:35.361Z,92.3
2023-03-08T05:50:38.689Z,92.2
2023-03-08T05:51:41.855Z,92.2
2023-03-08T05:52:45.574Z,92.1
2023-03-08T05:53:48.385Z,92
2023-03-08T05:54:51.383Z,92
2023-03-08T05:55:54.764Z,91.9
2023-03-08T05:56:58.210Z,91.9
2023-03-08T05:58:01.551Z,91.7
2023-03-08T05:59:04.625Z,91.6
2023-03-08T06:00:08.348Z,91.6
2023-03-08T06:01:11.969Z,91.6
2023-03-08T06:02:15.814Z,91.6
2023-03-08T06:03:20.205Z,91.5
2023-03-08T06:04:24.531Z,91.5
2023-03-08T06:05:27.130Z,91.5
2023-03-08T06:06:30.867Z,91.4
2023-03-08T06:07:34.211Z,91.4
2023-03-08T06:08:36.936Z,91.4
2023-03-08T06:09:39.435Z,91.3
2023-03-08T06:10:42.510Z,91.2
2023-03-08T06:11:45.734Z,91.1
2023-03-08T06:12:48.830Z,91.1
2023-03-08T06:13:52.264Z,91.2
2023-03-08T06:14:55.447Z,91.1
2023-03-08T06:15:58.755Z,91
2023-03-08T06:17:02.057Z,91.1
2023-03-08T06:18:05.608Z,91.1
2023-03-08T06:19:09.187Z,91.1
2023-03-08T06:20:13.353Z,91.2
2023-03-08T06:21:16.808Z,91.3
2023-03-08T06:22:20.280Z,91.3
2023-03-08T06:23:23.979Z,91.2
2023-03-08T06:24:26.845Z,91.1
2023-03-08T06:25:30.511Z,91
2023-03-08T06:26:34.592Z,91
2023-03-08T06:27:37.664Z,90.9
2023-03-08T06:28:40.554Z,90.9
2023-03-08T06:29:43.334Z,90.8
2023-03-08T06:30:46.672Z,90.8
2023-03-08T06:31:49.578Z,90.6
2023-03-08T06:32:52.970Z,90.5
2023-03-08T06:33:56.683Z,90.1
2023-03-08T06:34:59.731Z,89.9
2023-03-08T06:36:03.893Z,89.8
2023-03-08T06:37:07.010Z,89.7
2023-03-08T06:38:11.032Z,89.7
2023-03-08T06:39:13.818Z,89.7
2023-03-08T06:40:17.481Z,89.7
2023-03-08T06:41:21.275Z,89.8
2023-03-08T06:42:42.937Z,89.6
2023-03-08T06:43:46.233Z,89.6
2023-03-08T06:44:48.755Z,89.3
2023-03-08T06:45:52.902Z,89.5
2023-03-08T06:46:56.412Z,89.5
2023-03-08T06:47:59.462Z,89.5
2023-03-08T06:49:02.867Z,89.4
2023-03-08T06:50:06.361Z,89.3
2023-03-08T06:51:10.782Z,89.1
2023-03-08T06:52:13.710Z,88.9
2023-03-08T06:53:17.010Z,88.9
2023-03-08T06:54:19.535Z,88.9
2023-03-08T06:55:22.362Z,88.9
2023-03-08T06:56:25.998Z,88.8
2023-03-08T06:57:29.101Z,88.6
2023-03-08T06:58:31.726Z,88.4
2023-03-08T06:59:35.158Z,88.3
2023-03-08T07:00:38.525Z,88.1
2023-03-08T07:01:42.971Z,88
2023-03-08T07:02:46.059Z,87.9
2023-03-08T07:03:48.774Z,87.9
2023-03-08T07:04:51.935Z,87.7
2023-03-08T07:05:55.038Z,87.8
2023-03-08T07:06:59.226Z,87.6
2023-03-08T07:08:02.134Z,87.6
2023-03-08T07:09:05.125Z,87.7
2023-03-08T07:10:08.108Z,87.7
2023-03-08T07:11:11.586Z,87.6
2023-03-08T07:12:15.137Z,87.3
2023-03-08T07:13:18.960Z,87.2
2023-03-08T07:14:22.654Z,87.2
2023-03-08T07:15:26.143Z,87.2
2023-03-08T07:16:29.248Z,87.1
2023-03-08T07:17:31.761Z,87
2023-03-08T07:18:34.921Z,87
2023-03-08T07:19:38.004Z,87
2023-03-08T07:20:41.700Z,87.1
2023-03-08T07:21:45.622Z,87.2
2023-03-08T07:22:49.900Z,87.1
2023-03-08T07:23:53.590Z,86.8
2023-03-08T07:24:57.375Z,86.9
2023-03-08T07:26:00.767Z,86.8
2023-03-08T07:27:04.230Z,86.7
2023-03-08T07:28:07.972Z,86.7
2023-03-08T07:29:10.707Z,86.7
2023-03-08T07:30:14.157Z,86.6
2023-03-08T07:31:17.533Z,86.6
2023-03-08T07:32:21.708Z,86.9
2023-03-08T07:33:25.699Z,86.9
2023-03-08T07:34:29.177Z,86.9
2023-03-08T07:35:32.318Z,87.2
2023-03-08T07:36:35.304Z,87.2
2023-03-08T07:37:38.497Z,87
2023-03-08T07:38:42.684Z,86.9
2023-03-08T07:39:45.843Z,86.9
2023-03-08T07:40:49.455Z,87
2023-03-08T07:41:52.320Z,86.8
2023-03-08T07:42:55.768Z,86.7
2023-03-08T07:43:59.104Z,86.7
2023-03-08T07:45:02.227Z,86.8
2023-03-08T07:46:05.474Z,87
2023-03-08T07:47:09.007Z,87
2023-03-08T07:48:12.344Z,87.1
2023-03-08T07:49:16.007Z,86.7
2023-03-08T07:50:18.721Z,86.9
2023-03-08T07:51:21.932Z,86.9
2023-03-08T07:52:24.442Z,87.1
2023-03-08T07:53:27.966Z,87
2023-03-08T07:54:31.906Z,86.9
2023-03-08T07:55:35.542Z,86.6
2023-03-08T07:56:38.268Z,86.4
2023-03-08T07:57:41.002Z,86.4
2023-03-08T07:58:44.142Z,86.3
2023-03-08T07:59:47.211Z,86.3
2023-03-08T08:00:50.339Z,86.3
2023-03-08T08:01:54.155Z,86.3
2023-03-08T08:02:57.777Z,86.3
2023-03-08T08:04:01.342Z,86.3
2023-03-08T08:05:04.975Z,86.2
2023-03-08T08:06:07.921Z,86.1
2023-03-08T08:07:10.421Z,86
2023-03-08T08:08:13.504Z,86
2023-03-08T08:09:17.326Z,85.8
2023-03-08T08:10:21.641Z,86
2023-03-08T08:11:24.993Z,85.9
2023-03-08T08:12:29.011Z,86
2023-03-08T08:13:32.344Z,85.8
2023-03-08T08:14:35.230Z,85.7
2023-03-08T08:15:39.259Z,85.7
2023-03-08T08:16:42.652Z,85.6
2023-03-08T08:17:46.304Z,85.6
2023-03-08T08:18:49.459Z,85.6
2023-03-08T08:19:52.683Z,85.7
2023-03-08T08:20:56.295Z,85.9
2023-03-08T08:21:59.598Z,85.8
2023-03-08T08:23:02.763Z,85.4
2023-03-08T08:24:05.820Z,84.9
2023-03-08T08:25:08.964Z,85.2
2023-03-08T08:26:13.201Z,85.5
2023-03-08T08:27:16.621Z,85
2023-03-08T08:28:20.021Z,84.7
2023-03-08T08:29:22.572Z,83.5
2023-03-08T08:30:25.364Z,83.5
2023-03-08T08:31:27.898Z,83.9
2023-03-08T08:32:30.850Z,84.2
2023-03-08T08:33:34.290Z,84.4
2023-03-08T08:34:37.562Z,84.5
2023-03-08T08:35:45.230Z,84.6
2023-03-08T08:36:48.510Z,84.4
2023-03-08T08:37:51.540Z,84.4
2023-03-08T08:38:53.993Z,84.4
2023-03-08T08:39:57.327Z,84.7
2023-03-08T08:41:00.542Z,84.5
2023-03-08T08:42:04.721Z,83.8
2023-03-08T08:43:07.774Z,83.5
2023-03-08T08:44:11.555Z,83.2
2023-03-08T08:45:15.000Z,82.6
2023-03-08T08:46:18.023Z,82.7
2023-03-08T08:47:20.730Z,82.6
2023-03-08T08:48:23.421Z,82.4
2023-03-08T08:49:26.427Z,82.4
2023-03-08T08:50:29.801Z,82.2
2023-03-08T08:51:33.207Z,82
2023-03-08T08:52:37.189Z,82.1
2023-03-08T08:53:40.756Z,82.2
2023-03-08T08:54:44.362Z,82.3
2023-03-08T08:55:47.137Z,82.3
2023-03-08T08:56:50.834Z,82.3
2023-03-08T08:57:55.008Z,82.4
2023-03-08T08:58:58.452Z,82.4
2023-03-08T09:00:01.508Z,82.8
2023-03-08T09:01:05.221Z,82.7
2023-03-08T09:02:11.393Z,82.7
2023-03-08T09:03:14.914Z,83
2023-03-08T09:04:18.591Z,82.5
2023-03-08T09:05:22.039Z,82.3
2023-03-08T09:06:25.336Z,82.3
2023-03-08T09:07:28.393Z,82.3
2023-03-08T09:08:31.601Z,82.1
2023-03-08T09:09:34.995Z,82.2
2023-03-08T09:10:38.398Z,82.4
2023-03-08T09:11:57.048Z,82.4
2023-03-08T09:13:01.354Z,81.9
2023-03-08T09:14:05.192Z,81.9
2023-03-08T09:15:08.587Z,81.7
2023-03-08T09:16:12.160Z,81.5
2023-03-08T09:17:14.994Z,81.3
2023-03-08T09:18:17.897Z,81.1
2023-03-08T09:19:21.245Z,81.2
2023-03-08T09:20:25.231Z,80.7
2023-03-08T09:21:28.970Z,80.8
2023-03-08T09:22:32.313Z,80.5
2023-03-08T09:23:35.765Z,80.8
2023-03-08T09:24:39.069Z,80.7
2023-03-08T09:25:41.913Z,79.5
2023-03-08T09:26:45.148Z,79.5
2023-03-08T09:27:48.748Z,79.7
2023-03-08T09:28:53.029Z,80
2023-03-08T09:29:56.206Z,80.1
2023-03-08T09:30:58.879Z,89.2
2023-03-08T09:32:01.940Z,96.6
2023-03-08T09:33:04.900Z,91.9
2023-03-08T09:34:08.386Z,82.6
2023-03-08T09:35:12.335Z,78.9
2023-03-08T09:36:15.751Z,77
2023-03-08T09:37:18.809Z,76.5
2023-03-08T09:38:22.593Z,76.4
2023-03-08T09:39:25.813Z,76.6
2023-03-08T09:40:28.988Z,77
2023-03-08T09:41:32.341Z,77
2023-03-08T09:42:35.177Z,77.1
2023-03-08T09:43:39.041Z,77.4
2023-03-08T09:44:43.244Z,77.7
2023-03-08T09:45:46.478Z,78.2
2023-03-08T09:46:49.721Z,78.5
2023-03-08T09:47:53.226Z,78.5
2023-03-08T09:48:56.405Z,78.9
2023-03-08T09:50:00.155Z,78.9
2023-03-08T09:51:03.198Z,79
2023-03-08T09:52:07.004Z,79
2023-03-08T09:53:09.734Z,79
2023-03-08T09:54:13.394Z,78.8
2023-03-08T09:55:16.406Z,78.9
2023-03-08T09:56:19.423Z,78.6
2023-03-08T09:57:22.436Z,78.8
2023-03-08T09:58:25.978Z,78.7
2023-03-08T09:59:29.520Z,78.7
2023-03-08T10:00:34.125Z,78.9
2023-03-08T10:01:38.061Z,79.2
2023-03-08T10:02:41.649Z,79.3
2023-03-08T10:03:45.223Z,79.4
2023-03-08T10:04:48.685Z,79.5
2023-03-08T10:06:13.529Z,79.6
2023-03-08T10:07:16.917Z,79.9
2023-03-08T10:08:20.119Z,79.6
2023-03-08T10:09:23.618Z,79.6
2023-03-08T10:10:27.036Z,79.4
2023-03-08T10:11:30.387Z,79.3
2023-03-08T10:12:33.771Z,79.2
2023-03-08T10:13:37.508Z,79
2023-03-08T10:14:40.153Z,78.6
2023-03-08T10:15:44.085Z,78.7
2023-03-08T10:16:47.220Z,78.1
2023-03-08T10:17:50.657Z,78
2023-03-08T10:18:54.076Z,77.6
2023-03-08T10:19:57.513Z,77.8
2023-03-08T10:21:01.550Z,77.8
2023-03-08T10:22:04.901Z,78.2
2023-03-08T10:23:08.683Z,77.9
2023-03-08T10:24:11.509Z,77.9
2023-03-08T10:25:15.140Z,77.7
2023-03-08T10:26:18.767Z,77.2
2023-03-08T10:27:22.287Z,77
2023-03-08T10:28:25.047Z,77
2023-03-08T10:29:28.757Z,76.9
2023-03-08T10:30:32.619Z,76.7
2023-03-08T10:31:36.942Z,76.6
2023-03-08T10:32:39.896Z,76.1
2023-03-08T10:33:43.162Z,75.5
2023-03-08T10:34:46.579Z,75.3
2023-03-08T10:35:50.190Z,75.6
2023-03-08T10:36:54.077Z,76
2023-03-08T10:37:57.360Z,75.9
2023-03-08T10:39:01.315Z,75.7
2023-03-08T10:40:07.889Z,75.6
2023-03-08T10:41:11.586Z,75.5
2023-03-08T10:42:14.947Z,75.8
2023-03-08T10:43:18.799Z,74.9
2023-03-08T10:44:23.833Z,74.4
2023-03-08T10:45:26.912Z,74.3
2023-03-08T10:46:29.849Z,74.2
2023-03-08T10:47:34.367Z,74.4
2023-03-08T10:48:37.934Z,74.9
2023-03-08T10:49:40.938Z,74.8
2023-03-08T10:50:43.964Z,74.4
2023-03-08T10:51:47.446Z,74
2023-03-08T10:52:50.927Z,73.8
2023-03-08T10:53:54.393Z,73.9
2023-03-08T10:54:58.133Z,74
2023-03-08T10:56:02.099Z,73.9
2023-03-08T10:57:04.936Z,73.8
2023-03-08T10:58:07.766Z,73.9
2023-03-08T10:59:10.863Z,74
2023-03-08T11:00:14.228Z,74.3
2023-03-08T11:01:16.949Z,74.4
2023-03-08T11:02:20.110Z,74.2
2023-03-08T11:03:24.443Z,73.9
2023-03-08T11:04:27.667Z,73.9
2023-03-08T11:05:31.576Z,74.2
2023-03-08T11:06:34.967Z,74.4
2023-03-08T11:07:37.471Z,74.5
2023-03-08T11:08:40.666Z,74.4
2023-03-08T11:09:43.623Z,74.2
2023-03-08T11:10:47.489Z,74.1
2023-03-08T11:11:51.629Z,73.8
2023-03-08T11:12:55.013Z,73.3
2023-03-08T11:13:58.288Z,73
2023-03-08T11:15:01.561Z,73.2
2023-03-08T11:16:06.695Z,73.5
2023-03-08T11:17:10.780Z,73.8
2023-03-08T11:18:14.109Z,72.9
2023-03-08T11:19:18.497Z,72.9
2023-03-08T11:20:21.860Z,72.6
2023-03-08T11:21:25.273Z,72.4
2023-03-08T11:22:28.276Z,72.6
2023-03-08T11:23:31.982Z,72.6
2023-03-08T11:24:35.773Z,72.3
2023-03-08T11:25:39.301Z,71.8
2023-03-08T11:26:42.934Z,72
2023-03-08T11:27:47.287Z,71.4
2023-03-08T11:28:50.585Z,71.4
2023-03-08T11:29:53.847Z,71.6
2023-03-08T11:30:57.305Z,71.6
2023-03-08T11:32:00.112Z,71.6
2023-03-08T11:33:04.216Z,71.6
2023-03-08T11:34:08.179Z,71.4
2023-03-08T11:35:12.518Z,71
2023-03-08T11:36:16.125Z,71.3
2023-03-08T11:37:19.491Z,71.4
2023-03-08T11:38:22.858Z,72
2023-03-08T11:39:26.348Z,69.9
2023-03-08T11:40:28.924Z,69.9
2023-03-08T11:41:32.687Z,69.6
2023-03-08T11:42:35.851Z,69.1
2023-03-08T11:43:38.932Z,68
2023-03-08T11:44:42.624Z,68
2023-03-08T11:45:46.277Z,67.7
2023-03-08T11:46:49.721Z,67.9
2023-03-08T11:47:53.226Z,67.7
2023-03-08T11:48:56.619Z,67
2023-03-08T11:50:00.709Z,66.4
2023-03-08T11:51:05.123Z,66.7
2023-03-08T11:52:08.122Z,67
2023-03-08T11:53:11.921Z,66.2
2023-03-08T11:54:15.773Z,66.6
2023-03-08T11:55:19.052Z,66.5
2023-03-08T11:56:22.454Z,66.3
2023-03-08T11:57:26.136Z,65.8
2023-03-08T11:58:29.663Z,65.3
2023-03-08T11:59:33.356Z,65.3
2023-03-08T12:00:37.074Z,66.5
2023-03-08T12:01:40.747Z,66.3
2023-03-08T12:02:44.238Z,65.7
2023-03-08T12:03:47.726Z,66
2023-03-08T12:04:52.344Z,66.2
2023-03-08T12:05:57.135Z,66.1
2023-03-08T12:07:02.321Z,64.9
2023-03-08T12:08:05.904Z,65.7
2023-03-08T12:09:09.225Z,64.7
2023-03-08T12:10:13.218Z,63.9
2023-03-08T12:11:17.460Z,63.8
2023-03-08T12:12:20.504Z,64
2023-03-08T12:13:24.505Z,63.5
2023-03-08T12:14:27.983Z,61.8
2023-03-08T12:15:31.344Z,61.3
2023-03-08T12:16:36.094Z,61.8
2023-03-08T12:17:41.678Z,61
2023-03-08T12:18:44.850Z,60.8
2023-03-08T12:19:48.513Z,60.8
2023-03-08T12:20:51.955Z,61
2023-03-08T12:21:55.371Z,60.9
2023-03-08T12:22:59.863Z,58.9
2023-03-08T12:24:05.841Z,57.7
2023-03-08T12:25:09.081Z,58
2023-03-08T12:26:12.254Z,58.9
2023-03-08T12:27:15.516Z,59.2
2023-03-08T12:28:19.607Z,59.5
2023-03-08T12:29:24.895Z,60.1
2023-03-08T12:30:28.306Z,59.2
2023-03-08T12:31:32.226Z,59
2023-03-08T12:32:36.728Z,59.3
2023-03-08T12:33:41.227Z,60
2023-03-08T12:34:44.130Z,59.2
2023-03-08T12:35:47.788Z,57.8
2023-03-08T12:36:51.423Z,57.4
2023-03-08T12:37:55.226Z,58.2
2023-03-08T12:38:59.400Z,59
2023-03-08T12:40:02.629Z,59.5
2023-03-08T12:41:06.165Z,58
2023-03-08T12:42:09.721Z,57.8
2023-03-08T12:43:13.628Z,57.9
2023-03-08T12:44:17.102Z,57.9
2023-03-08T12:45:19.828Z,58.1
2023-03-08T12:46:23.146Z,58
2023-03-08T12:47:27.072Z,57.9
2023-03-08T12:48:30.555Z,58
2023-03-08T12:49:34.580Z,59.5
2023-03-08T12:50:38.567Z,75.2
2023-03-08T12:51:42.151Z,68.9
2023-03-08T12:52:46.317Z,62.2
2023-03-08T12:53:49.819Z,59.3
2023-03-08T12:54:53.930Z,57.6
2023-03-08T12:55:57.936Z,57.4
2023-03-08T12:57:01.370Z,58
2023-03-08T12:58:04.576Z,58.2
2023-03-08T12:59:08.274Z,57.7
2023-03-08T13:00:11.460Z,57.9
2023-03-08T13:01:15.160Z,58.5
2023-03-08T13:02:18.748Z,58.8
2023-03-08T13:03:21.547Z,58.9
2023-03-08T13:04:43.632Z,59.3
2023-03-08T13:05:47.321Z,60.1
2023-03-08T13:06:50.450Z,60.7
2023-03-08T13:07:53.248Z,60.6
2023-03-08T13:08:56.439Z,60.5
2023-03-08T13:10:00.642Z,60.5
2023-03-08T13:11:03.803Z,59.8
2023-03-08T13:12:07.515Z,59.5
2023-03-08T13:13:35.186Z,59.5
2023-03-08T13:14:43.022Z,59.8
2023-03-08T13:15:46.172Z,59.9
2023-03-08T13:16:49.175Z,60.1
2023-03-08T13:17:52.351Z,60.4
2023-03-08T13:18:56.500Z,60.4
2023-03-08T13:20:00.238Z,59.6
2023-03-08T13:21:03.801Z,59.3
2023-03-08T13:22:06.339Z,59.2
2023-03-08T13:23:09.270Z,59.2
2023-03-08T13:24:12.758Z,60.1
2023-03-08T13:25:17.129Z,59.9
2023-03-08T13:26:20.923Z,60.7
2023-03-08T13:27:24.789Z,61.1
2023-03-08T13:28:49.042Z,61.7
2023-03-08T13:29:53.557Z,61.9
2023-03-08T13:30:57.617Z,61.7
2023-03-08T13:32:00.675Z,61.6
2023-03-08T13:33:03.895Z,61.6
2023-03-08T13:34:07.012Z,61.2
2023-03-08T13:35:10.071Z,61.2
2023-03-08T13:36:13.266Z,61.3
2023-03-08T13:37:16.692Z,61.3
2023-03-08T13:38:20.388Z,61.3
2023-03-08T13:39:23.748Z,61.4
2023-03-08T13:40:28.053Z,61.7
2023-03-08T13:41:31.471Z,61.7
2023-03-08T13:42:34.948Z,62
2023-03-08T13:43:38.729Z,61.3
2023-03-08T13:44:41.465Z,61.4
2023-03-08T13:45:44.309Z,61.6
2023-03-08T13:46:47.790Z,61.5
2023-03-08T13:47:51.033Z,61.4
2023-03-08T13:48:53.835Z,61.2
2023-03-08T13:49:56.909Z,60.9
2023-03-08T13:51:00.028Z,61
2023-03-08T13:52:02.850Z,61.3
2023-03-08T13:53:06.138Z,61.4
2023-03-08T13:54:09.494Z,61.3
2023-03-08T13:55:13.828Z,61.4
2023-03-08T13:56:18.323Z,61.7
2023-03-08T13:57:21.930Z,61.9
2023-03-08T13:58:25.318Z,62.1
2023-03-08T13:59:29.467Z,62.3
2023-03-08T14:00:32.601Z,62.3
2023-03-08T14:01:36.713Z,62.2
2023-03-08T14:02:40.515Z,62.4
2023-03-08T14:03:44.681Z,62.4
2023-03-08T14:04:48.774Z,62.6
2023-03-08T14:05:52.798Z,62.6
2023-03-08T14:06:55.415Z,62.4
2023-03-08T14:07:59.124Z,61.6
2023-03-08T14:09:02.916Z,62
2023-03-08T14:10:06.824Z,62.7
2023-03-08T14:11:10.234Z,62.7
2023-03-08T14:12:14.692Z,62.4